Terminal Aerodrome Forecast
Issued by NWS

Home | Current Version | Previous Version | Text Only | Print | Product List | Glossary On
Versions: 1 2 3 4 5 6 7 8 9 10 11 12 13 14 15
000
FTUS45 KLKN 251134
TAFELY
TAF
KELY 251134Z 2512/2612 16006KT P6SM SKC
     FM251800 20010G20KT P6SM FEW120
     FM260200 19009KT P6SM SKC=

USA.gov is the U.S. government's official web portal to all federal, state and local government web resources and services.